createdAt,value
2022-09-14T00:02:12.252Z,16.01
2022-09-14T00:04:44.625Z,15.98
2022-09-14T00:07:16.812Z,15.97
2022-09-14T00:09:49.181Z,15.95
2022-09-14T00:12:28.669Z,15.93
2022-09-14T00:19:53.517Z,15.88
2022-09-14T00:22:45.713Z,15.87
2022-09-14T00:25:18.509Z,15.87
2022-09-14T00:32:14.458Z,15.84
2022-09-14T00:35:10.267Z,15.81
2022-09-14T00:46:30.278Z,15.67
2022-09-14T00:53:31.776Z,15.63
2022-09-14T00:56:04.222Z,15.65
2022-09-14T00:58:43.017Z,15.66
2022-09-14T01:01:16.406Z,15.65
2022-09-14T01:03:55.679Z,15.62
2022-09-14T01:20:35.440Z,15.53
2022-09-14T01:32:15.638Z,15.49
2022-09-14T01:34:50.963Z,15.44
2022-09-14T01:54:51.218Z,15.39
2022-09-14T02:06:41.307Z,15.31
2022-09-14T02:10:32.324Z,15.27
2022-09-14T02:13:08.277Z,15.22
2022-09-14T02:26:04.255Z,15.14
2022-09-14T02:28:41.579Z,15.07
2022-09-14T03:02:19.358Z,14.97
2022-09-14T03:04:58.614Z,14.96
2022-09-14T03:07:31.215Z,14.97
2022-09-14T03:10:10.956Z,14.97
2022-09-14T03:12:43.125Z,14.97
2022-09-14T03:19:45.927Z,15.02
2022-09-14T03:22:18.112Z,15.03
2022-09-14T03:24:56.995Z,15.04
2022-09-14T03:27:29.475Z,15.05
2022-09-14T03:30:09.932Z,15.05
2022-09-14T03:37:50.239Z,15.02
2022-09-14T03:40:29.910Z,15.02
2022-09-14T03:43:02.376Z,15.01
2022-09-14T03:45:42.519Z,15.01
2022-09-14T03:48:15.913Z,15.02
2022-09-14T03:50:55.053Z,15.00
2022-09-14T03:53:27.955Z,14.97
2022-09-14T04:08:05.921Z,15.00
2022-09-14T04:11:26.007Z,15.01
2022-09-14T04:27:32.796Z,15.01
2022-09-14T04:30:05.368Z,15.03
2022-09-14T04:32:44.782Z,15.04
2022-09-14T04:35:17.363Z,15.05
2022-09-14T04:37:56.170Z,15.03
2022-09-14T04:40:29.039Z,15.03
2022-09-14T04:43:08.213Z,15.02
2022-09-14T04:45:41.016Z,15.03
2022-09-14T04:48:21.011Z,15.02
2022-09-14T04:50:53.220Z,15.01
2022-09-14T04:53:32.135Z,15.03
2022-09-14T04:56:05.949Z,15.06
2022-09-14T04:58:39.843Z,15.08
2022-09-14T05:01:14.649Z,15.10
2022-09-14T05:04:43.384Z,15.11
2022-09-14T05:07:15.939Z,15.14
2022-09-14T05:10:20.928Z,15.17
2022-09-14T05:13:36.439Z,15.19
2022-09-14T05:16:11.191Z,15.21
2022-09-14T05:19:48.571Z,15.21
2022-09-14T05:22:26.298Z,15.22
2022-09-14T05:25:00.989Z,15.25
2022-09-14T05:27:40.251Z,15.30
2022-09-14T05:30:14.281Z,15.35
2022-09-14T05:38:03.152Z,15.42
2022-09-14T05:40:42.325Z,15.45
2022-09-14T05:43:14.629Z,15.50
2022-09-14T05:45:53.439Z,15.53
2022-09-14T05:48:25.934Z,15.59
2022-09-14T05:51:05.822Z,15.63
2022-09-14T05:58:29.222Z,15.74
2022-09-14T06:01:41.930Z,15.79
2022-09-14T06:04:21.302Z,15.83
2022-09-14T06:07:14.860Z,15.82
2022-09-14T06:10:42.152Z,15.86
2022-09-14T06:13:15.503Z,15.91
2022-09-14T06:15:54.136Z,15.93
2022-09-14T06:18:26.633Z,15.99
2022-09-14T06:21:06.125Z,16.04
2022-09-14T06:41:41.747Z,16.41
2022-09-14T06:44:49.848Z,16.47
2022-09-14T06:51:39.708Z,16.61
2022-09-14T06:55:01.898Z,16.69
2022-09-14T06:57:34.077Z,16.77
2022-09-14T07:00:08.603Z,16.85
2022-09-14T07:03:39.725Z,16.97
2022-09-14T07:07:01.217Z,17.14
2022-09-14T07:09:33.305Z,17.26
2022-09-14T07:16:38.601Z,17.56
2022-09-14T07:19:14.668Z,17.70
2022-09-14T07:23:44.036Z,17.92
2022-09-14T07:26:26.895Z,18.09
2022-09-14T07:33:49.714Z,18.83
2022-09-14T07:36:32.719Z,19.02
2022-09-14T07:44:47.976Z,19.36
2022-09-14T07:48:15.279Z,19.45
2022-09-14T07:50:47.726Z,19.45
2022-09-14T07:53:26.360Z,19.44
2022-09-14T07:56:01.833Z,19.47
2022-09-14T07:59:38.544Z,19.65
2022-09-14T08:03:00.495Z,19.92
2022-09-14T08:05:45.462Z,20.26
2022-09-14T08:08:42.959Z,20.54
2022-09-14T08:11:16.758Z,20.68
2022-09-14T08:21:44.101Z,21.44
2022-09-14T08:28:34.004Z,21.72
2022-09-14T08:31:09.029Z,21.60
2022-09-14T08:34:36.376Z,21.61
2022-09-14T08:37:10.903Z,21.66
2022-09-14T08:48:06.783Z,20.98
2022-09-14T08:50:38.940Z,20.71
2022-09-14T08:53:18.313Z,20.47
2022-09-14T09:00:24.517Z,20.06
2022-09-14T09:11:57.119Z,20.07
2022-09-14T09:24:11.143Z,20.28
2022-09-14T09:31:32.447Z,20.49
2022-09-14T09:39:28.105Z,20.38
2022-09-14T09:42:05.482Z,20.28
2022-09-14T09:45:01.256Z,20.24
2022-09-14T09:47:39.320Z,20.20
2022-09-14T09:50:22.075Z,20.18
2022-09-14T09:52:57.869Z,20.16
2022-09-14T09:55:36.917Z,20.16
2022-09-14T09:58:24.010Z,20.13
2022-09-14T10:01:02.279Z,20.12
2022-09-14T10:03:37.678Z,20.12
2022-09-14T10:06:14.936Z,20.13
2022-09-14T10:08:49.199Z,20.14
2022-09-14T10:11:37.866Z,20.15
2022-09-14T10:14:27.349Z,20.15
2022-09-14T10:17:08.334Z,20.14
2022-09-14T10:19:40.778Z,20.11
2022-09-14T10:22:28.993Z,20.10
2022-09-14T10:25:03.863Z,20.08
2022-09-14T10:27:43.579Z,20.05
2022-09-14T10:30:20.304Z,20.02
2022-09-14T10:32:59.582Z,19.99
2022-09-14T10:35:41.394Z,20.00
2022-09-14T10:38:25.850Z,20.00
2022-09-14T10:41:08.835Z,20.00
2022-09-14T10:44:00.693Z,20.03
2022-09-14T10:46:39.360Z,20.03
2022-09-14T10:49:26.526Z,20.04
2022-09-14T10:52:07.593Z,20.06
2022-09-14T10:55:14.096Z,20.08
2022-09-14T10:57:57.522Z,20.11
2022-09-14T11:00:41.173Z,20.11
2022-09-14T11:03:31.121Z,20.17
2022-09-14T11:06:15.391Z,20.23
2022-09-14T11:08:52.853Z,20.30
2022-09-14T11:20:02.948Z,20.46
2022-09-14T11:22:42.436Z,20.46
2022-09-14T11:25:19.635Z,20.53
2022-09-14T11:27:58.794Z,20.60
2022-09-14T11:30:39.675Z,20.63
2022-09-14T11:33:18.186Z,20.63
2022-09-14T11:35:56.220Z,20.61
2022-09-14T11:38:30.646Z,20.62
2022-09-14T11:41:10.912Z,20.65
2022-09-14T11:43:45.027Z,20.68
2022-09-14T11:46:22.999Z,20.68
2022-09-14T11:49:03.043Z,20.64
2022-09-14T11:51:38.394Z,20.57
2022-09-14T11:54:17.253Z,20.56
2022-09-14T11:56:53.782Z,20.56
2022-09-14T11:59:38.699Z,20.53
2022-09-14T12:02:50.746Z,20.49
2022-09-14T12:05:44.907Z,20.49
2022-09-14T13:02:40.825Z,20.17
2022-09-14T13:05:31.055Z,20.09
2022-09-14T13:16:55.598Z,19.94
2022-09-14T13:19:35.689Z,19.95
2022-09-14T13:26:46.671Z,19.91
2022-09-14T13:29:18.861Z,19.85
2022-09-14T13:31:51.293Z,19.81
2022-09-14T13:34:27.801Z,19.71
2022-09-14T13:37:00.882Z,19.61
2022-09-14T13:39:35.751Z,19.54
2022-09-14T13:42:09.537Z,19.52
2022-09-14T13:44:45.852Z,19.58
2022-09-14T13:47:22.797Z,19.60
2022-09-14T13:49:57.597Z,19.58
2022-09-14T13:53:00.550Z,19.55
2022-09-14T13:55:42.236Z,19.51
2022-09-14T13:58:24.969Z,19.51
2022-09-14T14:01:02.420Z,19.53
2022-09-14T14:03:40.255Z,19.55
2022-09-14T14:06:26.443Z,19.56
2022-09-14T14:09:02.508Z,19.53
2022-09-14T14:11:38.204Z,19.50
2022-09-14T14:14:31.545Z,19.48
2022-09-14T14:17:36.817Z,19.34
2022-09-14T14:20:31.215Z,19.29
2022-09-14T14:23:16.690Z,19.29
2022-09-14T14:25:54.392Z,19.28
2022-09-14T14:28:33.488Z,19.26
2022-09-14T14:31:09.149Z,19.22
2022-09-14T14:33:48.442Z,19.20
2022-09-14T14:36:21.059Z,19.21
2022-09-14T14:38:53.403Z,19.20
2022-09-14T14:41:25.713Z,19.20
2022-09-14T14:43:59.275Z,19.19
2022-09-14T14:46:32.005Z,19.18
2022-09-14T14:49:05.143Z,19.11
2022-09-14T14:51:37.794Z,19.09
2022-09-14T14:54:11.028Z,19.09
2022-09-14T14:56:44.250Z,19.06
2022-09-14T14:59:29.524Z,19.03
2022-09-14T15:02:02.648Z,18.95
2022-09-14T15:04:34.992Z,18.90
2022-09-14T15:07:07.572Z,18.91
2022-09-14T15:10:12.866Z,18.93
2022-09-14T15:12:51.992Z,18.93
2022-09-14T15:19:16.912Z,18.83
2022-09-14T15:25:56.375Z,18.70
2022-09-14T15:28:28.565Z,18.65
2022-09-14T15:31:08.094Z,18.63
2022-09-14T15:38:31.607Z,18.53
2022-09-14T15:53:53.191Z,18.43
2022-09-14T15:56:25.389Z,18.39
2022-09-14T16:08:45.660Z,18.23
2022-09-14T16:11:18.337Z,18.23
2022-09-14T16:13:53.284Z,18.22
2022-09-14T16:22:04.945Z,18.11
2022-09-14T16:24:44.381Z,18.10
2022-09-14T16:27:16.651Z,18.13
2022-09-14T16:29:55.314Z,18.13
2022-09-14T16:32:27.899Z,18.13
2022-09-14T16:35:08.525Z,18.16
2022-09-14T16:37:41.596Z,18.18
2022-09-14T16:40:15.337Z,18.16
2022-09-14T16:47:43.006Z,18.11
2022-09-14T16:54:46.943Z,18.04
2022-09-14T16:57:19.422Z,18.02
2022-09-14T16:59:51.552Z,18.04
2022-09-14T17:03:06.190Z,18.07
2022-09-14T17:05:45.140Z,18.09
2022-09-14T17:13:16.959Z,18.00
2022-09-14T17:20:40.922Z,17.91
2022-09-14T17:23:20.288Z,17.90
2022-09-14T17:25:53.010Z,17.88
2022-09-14T17:28:33.047Z,17.87
2022-09-14T17:31:09.971Z,17.87
2022-09-14T17:38:11.083Z,17.85
2022-09-14T17:40:43.989Z,17.85
2022-09-14T17:43:23.115Z,17.80
2022-09-14T17:45:58.117Z,17.79
2022-09-14T17:49:23.183Z,17.78
2022-09-14T17:56:46.062Z,17.79
2022-09-14T17:59:27.497Z,17.78
2022-09-14T18:02:01.891Z,17.78
2022-09-14T18:05:24.384Z,17.79
2022-09-14T18:07:57.199Z,17.79
2022-09-14T18:10:39.109Z,17.81
2022-09-14T18:22:57.480Z,17.80
2022-09-14T18:25:30.778Z,17.80
2022-09-14T18:28:03.199Z,17.79
2022-09-14T18:30:43.759Z,17.79
2022-09-14T18:38:08.465Z,17.80
2022-09-14T18:40:44.744Z,17.77
2022-09-14T18:43:20.420Z,17.76
2022-09-14T18:45:55.661Z,17.77
2022-09-14T18:48:39.039Z,17.76
2022-09-14T18:59:59.191Z,17.72
2022-09-14T19:07:21.391Z,17.71
2022-09-14T19:10:02.350Z,17.74
2022-09-14T19:17:27.162Z,17.72
2022-09-14T19:20:01.888Z,17.68
2022-09-14T19:24:30.970Z,17.64
2022-09-14T19:32:14.275Z,17.65
2022-09-14T19:34:49.584Z,17.67
2022-09-14T19:38:17.187Z,17.70
2022-09-14T19:45:04.812Z,17.71
2022-09-14T19:47:37.092Z,17.70
2022-09-14T19:50:11.856Z,17.66
2022-09-14T19:52:45.964Z,17.64
2022-09-14T19:55:18.239Z,17.64
2022-09-14T19:57:51.259Z,17.69
2022-09-14T20:00:23.810Z,17.67
2022-09-14T20:02:56.163Z,17.68
2022-09-14T20:05:28.369Z,17.65
2022-09-14T20:08:00.550Z,17.61
2022-09-14T20:10:32.685Z,17.60
2022-09-14T20:13:04.902Z,17.54
2022-09-14T20:15:37.510Z,17.48
2022-09-14T20:18:09.795Z,17.49
2022-09-14T20:20:42.762Z,17.52
2022-09-14T20:23:15.220Z,17.51
2022-09-14T20:25:47.388Z,17.51
2022-09-14T20:28:20.140Z,17.52
2022-09-14T20:31:01.780Z,17.54
2022-09-14T20:33:37.162Z,17.55
2022-09-14T20:36:11.638Z,17.56
2022-09-14T20:38:50.210Z,17.56
2022-09-14T20:41:24.123Z,17.56
2022-09-14T20:43:57.071Z,17.56
2022-09-14T20:46:35.067Z,17.57
2022-09-14T20:49:11.391Z,17.57
2022-09-14T20:51:44.212Z,17.56
2022-09-14T20:54:18.575Z,17.52
2022-09-14T20:56:52.901Z,17.47
2022-09-14T20:59:25.977Z,17.39
2022-09-14T21:02:00.284Z,17.37
2022-09-14T21:04:35.232Z,17.34
2022-09-14T21:07:07.704Z,17.30
2022-09-14T21:09:40.004Z,17.28
2022-09-14T21:12:14.153Z,17.23
2022-09-14T21:14:48.065Z,17.17
2022-09-14T21:17:21.863Z,17.10
2022-09-14T21:19:54.185Z,17.09
2022-09-14T21:22:26.483Z,17.02
2022-09-14T21:24:58.876Z,16.98
2022-09-14T21:27:31.532Z,16.92
2022-09-14T21:30:14.178Z,16.87
2022-09-14T21:32:50.501Z,16.86
2022-09-14T21:35:22.946Z,16.85
2022-09-14T21:37:55.365Z,16.82
2022-09-14T21:40:27.542Z,16.84
2022-09-14T21:42:59.904Z,16.86
2022-09-14T21:45:32.236Z,16.88
2022-09-14T21:48:05.093Z,16.90
2022-09-14T21:50:37.463Z,16.90
2022-09-14T21:53:10.106Z,16.91
2022-09-14T21:55:42.467Z,16.92
2022-09-14T21:58:14.656Z,16.92
2022-09-14T22:00:49.571Z,16.93
2022-09-14T22:03:21.651Z,16.92
2022-09-14T22:06:00.072Z,16.88
2022-09-14T22:08:34.181Z,16.87
2022-09-14T22:11:07.541Z,16.88
2022-09-14T22:13:42.496Z,16.89
2022-09-14T22:16:18.277Z,16.87
2022-09-14T22:18:53.045Z,16.84
2022-09-14T22:21:27.216Z,16.86
2022-09-14T22:24:01.782Z,16.85
2022-09-14T22:26:35.224Z,16.84
2022-09-14T22:29:08.882Z,16.84
2022-09-14T22:31:42.896Z,16.83
2022-09-14T22:34:16.357Z,16.82
2022-09-14T22:36:48.793Z,16.79
2022-09-14T22:39:21.007Z,16.78
2022-09-14T22:41:54.442Z,16.79
2022-09-14T22:44:26.604Z,16.81
2022-09-14T22:47:01.223Z,16.76
2022-09-14T22:49:33.987Z,16.75
2022-09-14T22:52:06.586Z,16.69
2022-09-14T22:54:38.959Z,16.67
2022-09-14T22:57:14.553Z,16.66
2022-09-14T22:59:46.707Z,16.61
2022-09-14T23:02:21.418Z,16.57
2022-09-14T23:04:56.787Z,16.53
2022-09-14T23:07:29.070Z,16.49
2022-09-14T23:10:01.394Z,16.46
2022-09-14T23:12:33.739Z,16.43
2022-09-14T23:15:09.763Z,16.42
2022-09-14T23:17:42.168Z,16.42
2022-09-14T23:20:14.399Z,16.44
2022-09-14T23:22:46.662Z,16.45
2022-09-14T23:25:18.790Z,16.43
2022-09-14T23:27:50.884Z,16.44
2022-09-14T23:30:23.066Z,16.39
2022-09-14T23:32:55.223Z,16.39
2022-09-14T23:35:28.529Z,16.41
2022-09-14T23:38:02.580Z,16.43
2022-09-14T23:40:34.740Z,16.45
2022-09-14T23:43:07.376Z,16.45
2022-09-14T23:45:39.596Z,16.44
2022-09-14T23:48:14.956Z,16.42
2022-09-14T23:50:47.480Z,16.42
2022-09-14T23:53:20.502Z,16.43
2022-09-14T23:55:52.904Z,16.45
2022-09-14T23:58:27.944Z,16.47
